Terminal Aerodrome Forecast
Issued by NWS

Home | Current Version | Previous Version | Text Only | Print | Product List | Glossary On
Versions: 1 2 3 4 5 6 7 8 9 10 11 12 13 14 15 16
000
FTUS43 KMQT 222341
TAFSAW
TAF
KSAW 222341Z 2300/2324 17004KT P6SM OVC090
     FM230300 13004KT 6SM -SN SCT010 OVC050
     FM230500 11004KT 3/4SM -SN OVC004
     FM230700 09005KT 1/2SM SN VV003
     FM231300 16004KT 5SM -SN OVC007
     FM231700 22006KT 1 1/2SM -FZDZ BKN008
     FM231800 24006KT P6SM BKN010=

USA.gov is the U.S. government's official web portal to all federal, state and local government web resources and services.